Time;durP1;ratioP1;P1;durP2;ratioP2;P2;SDS_P1;SDS_P2;PMS_P1;PMS_P2;Temp;Humidity;BMP_temperature;BMP_pressure;BME280_temperature;BME280_humidity;BME280_pressure;Samples;Min_cycle;Max_cycle;Signal;HPM_P1;HPM_P2
2023/03/08 00:01:56;;;;;;;12.77;8.13;;;;;6.10;97048.00;;;;4934294;29;20046;-59
2023/03/08 00:04:22;;;;;;;14.65;7.90;;;;;6.00;97037.00;;;;4934542;29;20047;-59
2023/03/08 00:06:49;;;;;;;11.52;7.57;;;;;6.00;97042.00;;;;4934375;29;20513;-60
2023/03/08 00:09:15;;;;;;;12.23;8.30;;;;;6.00;97041.00;;;;4934426;29;20047;-59
2023/03/08 00:11:42;;;;;;;11.52;7.80;;;;;5.90;97046.00;;;;4933787;29;20128;-59
2023/03/08 00:14:08;;;;;;;14.20;8.70;;;;;5.90;97030.00;;;;4934253;29;20051;-62
2023/03/08 00:16:35;;;;;;;11.20;7.28;;;;;5.90;97035.00;;;;4934199;29;20051;-60
2023/03/08 00:19:01;;;;;;;11.80;7.38;;;;;5.90;97024.00;;;;4934187;29;20051;-60
2023/03/08 00:21:28;;;;;;;12.60;7.85;;;;;5.90;97018.00;;;;4935285;29;20043;-61
2023/03/08 00:23:55;;;;;;;13.38;8.38;;;;;5.90;97007.00;;;;4921969;29;20071;-60
2023/03/08 00:26:21;;;;;;;16.08;8.35;;;;;5.90;97010.00;;;;4938999;29;20051;-61
2023/03/08 00:28:48;;;;;;;14.73;9.48;;;;;5.90;97010.00;;;;4937524;29;20052;-61
2023/03/08 00:31:14;;;;;;;14.75;9.48;;;;;5.80;97016.00;;;;4937528;29;20122;-56
2023/03/08 00:33:41;;;;;;;13.32;8.18;;;;;5.80;97011.00;;;;4937611;29;20055;-59
2023/03/08 00:36:16;;;;;;;13.35;8.32;;;;;5.70;97018.00;;;;4937181;29;20047;-60
2023/03/08 00:38:43;;;;;;;15.13;8.88;;;;;5.70;97023.00;;;;4937488;29;20527;-61
2023/03/08 00:41:13;;;;;;;14.40;8.05;;;;;5.70;97031.00;;;;4936422;29;20122;-61
2023/03/08 00:43:41;;;;;;;13.43;8.25;;;;;5.70;97030.00;;;;4937486;29;20103;-59
2023/03/08 00:46:08;;;;;;;12.57;8.57;;;;;5.70;97026.00;;;;4937498;29;20489;-60
2023/03/08 00:48:34;;;;;;;12.73;7.85;;;;;5.80;97029.00;;;;4938575;29;20055;-61
2023/03/08 00:51:01;;;;;;;12.82;8.23;;;;;5.70;97024.00;;;;4937728;29;20043;-61
2023/03/08 00:53:29;;;;;;;15.70;8.98;;;;;5.70;97020.00;;;;4938358;29;20424;-62
2023/03/08 00:55:58;;;;;;;13.20;8.20;;;;;5.70;97010.00;;;;4938340;29;20055;-62
2023/03/08 00:58:28;;;;;;;12.57;8.65;;;;;5.70;97027.00;;;;4952179;29;20048;-56
2023/03/08 01:00:56;;;;;;;14.65;8.25;;;;;5.70;97025.00;;;;4951171;28;20497;-56
2023/03/08 01:03:23;;;;;;;13.45;8.15;;;;;5.60;97010.00;;;;4937101;29;20493;-58
2023/03/08 01:05:52;;;;;;;12.00;8.00;;;;;5.60;97009.00;;;;4935625;29;20051;-56
2023/03/08 01:08:20;;;;;;;15.02;8.77;;;;;5.50;96998.00;;;;4935655;29;20043;-57
2023/03/08 01:10:53;;;;;;;16.77;8.68;;;;;5.50;96999.00;;;;4936085;29;20050;-61
2023/03/08 01:13:21;;;;;;;13.00;8.80;;;;;5.40;96990.00;;;;4935374;29;20074;-56
2023/03/08 01:15:47;;;;;;;12.55;8.25;;;;;5.40;96989.00;;;;4919786;29;20107;-56
2023/03/08 01:18:14;;;;;;;12.13;8.30;;;;;5.40;96986.00;;;;4936705;29;20052;-56
2023/03/08 01:20:41;;;;;;;13.00;8.77;;;;;5.40;96974.00;;;;4934953;29;20055;-60
2023/03/08 01:23:08;;;;;;;14.93;8.68;;;;;5.40;96984.00;;;;4936651;29;20494;-57
2023/03/08 01:25:35;;;;;;;13.60;8.70;;;;;5.40;96989.00;;;;4936448;29;20413;-58
2023/03/08 01:28:02;;;;;;;12.32;8.07;;;;;5.40;96977.00;;;;4936467;29;20048;-56
2023/03/08 01:30:28;;;;;;;11.80;8.35;;;;;5.30;96965.00;;;;4934671;29;20047;-56
2023/03/08 01:32:55;;;;;;;17.90;9.90;;;;;5.30;96969.00;;;;4934291;29;20040;-58
2023/03/08 01:35:24;;;;;;;14.25;8.23;;;;;5.20;96964.00;;;;4936246;29;20488;-56
2023/03/08 01:37:52;;;;;;;15.05;8.00;;;;;5.20;96966.00;;;;4936365;29;20059;-56
2023/03/08 01:40:20;;;;;;;14.32;8.45;;;;;5.20;96964.00;;;;4934530;29;20044;-59
2023/03/08 01:42:47;;;;;;;13.68;8.43;;;;;5.20;96961.00;;;;4936354;29;20055;-57
2023/03/08 01:45:51;;;;;;;15.73;9.13;;;;;5.20;96967.00;;;;4936136;29;20039;-57
2023/03/08 01:48:22;;;;;;;12.25;8.20;;;;;5.20;96959.00;;;;4936246;29;20036;-58
2023/03/08 01:51:03;;;;;;;12.95;8.13;;;;;5.10;96965.00;;;;4935455;29;20074;-57
2023/03/08 01:53:32;;;;;;;11.98;8.38;;;;;5.10;96948.00;;;;4936320;29;20058;-59
2023/03/08 01:55:58;;;;;;;14.52;8.05;;;;;5.10;96948.00;;;;4936399;29;20063;-58
2023/03/08 01:58:25;;;;;;;13.40;8.52;;;;;5.10;96945.00;;;;4934863;29;20055;-60
2023/03/08 02:00:52;;;;;;;14.20;9.25;;;;;5.20;96940.00;;;;4934091;29;20040;-56
2023/03/08 02:03:19;;;;;;;14.15;8.90;;;;;5.20;96935.00;;;;4935169;29;20095;-59
2023/03/08 02:05:48;;;;;;;14.48;8.40;;;;;5.20;96935.00;;;;4935882;29;20043;-59
2023/03/08 02:08:18;;;;;;;13.80;9.07;;;;;5.20;96930.00;;;;4934639;29;20535;-58
2023/03/08 02:10:46;;;;;;;14.13;8.65;;;;;5.20;96929.00;;;;4918549;29;20047;-60
2023/03/08 02:13:13;;;;;;;21.77;9.13;;;;;5.20;96927.00;;;;4934497;29;20047;-56
2023/03/08 02:15:42;;;;;;;12.52;8.18;;;;;5.20;96915.00;;;;4934620;29;20462;-57
2023/03/08 02:18:09;;;;;;;15.57;8.52;;;;;5.20;96914.00;;;;4934639;29;20102;-56
2023/03/08 02:20:38;;;;;;;14.43;8.57;;;;;5.30;96924.00;;;;4935352;29;20039;-57
2023/03/08 02:23:19;;;;;;;9.80;7.60;;;;;5.30;96916.00;;;;4935729;29;20043;-55
2023/03/08 02:25:55;;;;;;;13.68;8.93;;;;;5.30;96908.00;;;;4934614;29;20463;-56
2023/03/08 02:28:24;;;;;;;15.07;9.32;;;;;5.30;96908.00;;;;4935729;29;20130;-59
2023/03/08 02:30:52;;;;;;;14.60;8.73;;;;;5.30;96907.00;;;;4934449;29;20043;-56
2023/03/08 02:33:19;;;;;;;11.57;8.27;;;;;5.40;96904.00;;;;4934456;29;20584;-57
2023/03/08 02:35:45;;;;;;;13.02;8.20;;;;;5.40;96899.00;;;;4934409;29;20098;-58
2023/03/08 02:38:16;;;;;;;13.20;9.02;;;;;5.40;96908.00;;;;4934452;29;20051;-60
2023/03/08 02:40:43;;;;;;;16.00;9.25;;;;;5.40;96894.00;;;;4933729;29;20047;-57
2023/03/08 02:43:10;;;;;;;13.88;8.95;;;;;5.40;96896.00;;;;4935095;29;20407;-55
2023/03/08 02:45:38;;;;;;;12.32;8.52;;;;;5.40;96900.00;;;;4933860;29;20048;-55
2023/03/08 02:48:07;;;;;;;14.60;8.57;;;;;5.40;96892.00;;;;4934292;29;20060;-55
2023/03/08 02:50:35;;;;;;;13.25;8.23;;;;;5.40;96893.00;;;;4933421;29;20053;-57
2023/03/08 02:53:03;;;;;;;13.80;8.43;;;;;5.40;96890.00;;;;4949824;29;20481;-55
2023/03/08 02:55:34;;;;;;;15.35;8.82;;;;;5.40;96894.00;;;;4933891;29;20501;-60
2023/03/08 02:58:06;;;;;;;13.88;8.52;;;;;5.40;96893.00;;;;4933870;29;20052;-57
2023/03/08 03:00:33;;;;;;;14.82;8.57;;;;;5.30;96886.00;;;;4933414;29;20050;-56
2023/03/08 03:03:00;;;;;;;13.02;8.25;;;;;5.20;96889.00;;;;4933897;29;20059;-55
2023/03/08 03:05:27;;;;;;;12.57;7.97;;;;;5.20;96888.00;;;;4935196;29;20044;-56
2023/03/08 03:07:57;;;;;;;12.40;8.10;;;;;5.20;96884.00;;;;4934025;29;20084;-56
2023/03/08 03:10:26;;;;;;;15.05;9.10;;;;;5.20;96877.00;;;;4933463;29;20043;-56
2023/03/08 03:12:53;;;;;;;15.90;9.50;;;;;5.20;96889.00;;;;4933714;29;20051;-56
2023/03/08 03:15:23;;;;;;;13.65;9.10;;;;;5.10;96871.00;;;;4933967;29;20052;-56
2023/03/08 03:17:53;;;;;;;13.70;9.32;;;;;5.10;96873.00;;;;4934117;29;20075;-61
2023/03/08 03:20:20;;;;;;;13.07;8.43;;;;;5.10;96873.00;;;;4933381;29;20135;-57
2023/03/08 03:22:47;;;;;;;16.08;8.23;;;;;5.00;96864.00;;;;4934025;29;20047;-56
2023/03/08 03:25:14;;;;;;;11.98;8.95;;;;;5.00;96858.00;;;;4934063;29;20048;-60
2023/03/08 03:27:43;;;;;;;15.15;8.75;;;;;5.00;96852.00;;;;4933824;29;20099;-56
2023/03/08 03:30:10;;;;;;;12.77;8.45;;;;;5.00;96849.00;;;;4934271;29;20118;-56
2023/03/08 03:32:37;;;;;;;13.13;8.68;;;;;5.00;96841.00;;;;4934405;29;20071;-57
2023/03/08 03:35:05;;;;;;;16.75;9.38;;;;;5.00;96837.00;;;;4936487;29;20081;-60
2023/03/08 03:37:33;;;;;;;12.85;7.95;;;;;4.90;96831.00;;;;4924198;29;20059;-56
2023/03/08 03:40:00;;;;;;;13.07;8.20;;;;;4.90;96830.00;;;;4937794;29;20106;-55
2023/03/08 03:42:27;;;;;;;14.13;8.73;;;;;4.90;96833.00;;;;4934057;29;20047;-56
2023/03/08 03:45:03;;;;;;;16.90;9.88;;;;;4.80;96835.00;;;;4934057;29;20103;-58
2023/03/08 03:47:30;;;;;;;13.73;8.82;;;;;4.80;96827.00;;;;4935451;29;20122;-58
2023/03/08 03:50:00;;;;;;;13.77;8.32;;;;;4.80;96828.00;;;;4933613;29;20504;-58
2023/03/08 03:52:31;;;;;;;13.80;8.93;;;;;4.80;96823.00;;;;4933696;29;20048;-59
2023/03/08 03:55:02;;;;;;;12.20;8.63;;;;;4.90;96818.00;;;;4934355;29;20563;-58
2023/03/08 03:57:29;;;;;;;16.70;8.73;;;;;4.80;96827.00;;;;4938017;29;20563;-58
2023/03/08 03:59:56;;;;;;;15.40;8.95;;;;;4.90;96825.00;;;;4937094;29;20072;-60
2023/03/08 04:02:23;;;;;;;14.02;8.82;;;;;4.90;96812.00;;;;4937351;29;20075;-59
2023/03/08 04:04:56;;;;;;;14.55;9.15;;;;;4.90;96815.00;;;;4937422;29;20052;-59
2023/03/08 04:07:27;;;;;;;14.07;8.63;;;;;4.90;96826.00;;;;4937481;29;20048;-59
2023/03/08 04:09:56;;;;;;;14.55;8.65;;;;;4.90;96818.00;;;;4936923;29;20531;-59
2023/03/08 04:12:24;;;;;;;14.52;9.00;;;;;5.00;96809.00;;;;4937044;29;20099;-58
2023/03/08 04:14:52;;;;;;;16.27;8.68;;;;;5.00;96807.00;;;;4937934;29;20053;-58
2023/03/08 04:17:20;;;;;;;16.27;9.23;;;;;5.00;96801.00;;;;4936921;29;20079;-58
2023/03/08 04:19:50;;;;;;;15.32;9.00;;;;;5.00;96802.00;;;;4936362;29;20054;-60
2023/03/08 04:22:18;;;;;;;15.52;8.75;;;;;5.10;96796.00;;;;4921325;29;20075;-59
2023/03/08 04:24:51;;;;;;;12.87;8.60;;;;;5.10;96790.00;;;;4937158;29;20059;-59
2023/03/08 04:27:24;;;;;;;14.48;7.95;;;;;5.10;96784.00;;;;4936739;29;20500;-59
2023/03/08 04:29:51;;;;;;;12.20;7.95;;;;;5.10;96783.00;;;;4935990;28;20052;-59
2023/03/08 04:32:18;;;;;;;16.73;8.43;;;;;5.10;96768.00;;;;4936616;29;20055;-60
2023/03/08 04:34:50;;;;;;;13.95;8.68;;;;;5.20;96768.00;;;;4937452;29;20047;-59
2023/03/08 04:37:20;;;;;;;12.85;8.40;;;;;5.20;96753.00;;;;4937535;29;20139;-59
2023/03/08 04:39:51;;;;;;;13.48;8.15;;;;;5.30;96759.00;;;;4935666;29;20106;-60
2023/03/08 04:42:18;;;;;;;12.55;7.70;;;;;5.30;96759.00;;;;4937344;29;20040;-60
2023/03/08 04:44:46;;;;;;;15.57;8.52;;;;;5.30;96752.00;;;;4920569;29;20056;-60
2023/03/08 04:47:17;;;;;;;12.32;8.45;;;;;5.40;96750.00;;;;4936143;29;20465;-60
2023/03/08 04:49:44;;;;;;;14.70;8.55;;;;;5.30;96746.00;;;;4935292;29;20103;-60
2023/03/08 04:52:11;;;;;;;12.18;8.13;;;;;5.40;96752.00;;;;4936153;29;20058;-59
2023/03/08 04:54:39;;;;;;;12.90;7.43;;;;;5.30;96750.00;;;;4936038;29;20047;-59
2023/03/08 04:57:16;;;;;;;12.75;7.85;;;;;5.40;96749.00;;;;4951938;29;20134;-60
2023/03/08 04:59:45;;;;;;;13.55;8.35;;;;;5.40;96745.00;;;;4935680;29;20473;-59
2023/03/08 05:02:13;;;;;;;13.00;7.47;;;;;5.40;96736.00;;;;4936313;29;20054;-58
2023/03/08 05:04:40;;;;;;;10.98;7.47;;;;;5.40;96726.00;;;;4936168;29;20098;-58
2023/03/08 05:07:06;;;;;;;12.85;8.15;;;;;5.40;96736.00;;;;4936281;29;20127;-58
2023/03/08 05:09:35;;;;;;;15.85;7.45;;;;;5.40;96743.00;;;;4934953;29;20043;-58
2023/03/08 05:12:01;;;;;;;14.23;8.00;;;;;5.50;96731.00;;;;4935762;29;20044;-57
2023/03/08 05:14:42;;;;;;;10.80;7.32;;;;;5.50;96732.00;;;;4937076;29;20056;-58
2023/03/08 05:17:08;;;;;;;13.95;8.23;;;;;5.60;96736.00;;;;4935890;29;20098;-58
2023/03/08 05:19:35;;;;;;;12.35;8.07;;;;;5.60;96727.00;;;;4935020;29;20047;-57
2023/03/08 05:22:04;;;;;;;12.57;7.40;;;;;5.60;96703.00;;;;4935617;29;20078;-58
2023/03/08 05:24:32;;;;;;;15.43;7.68;;;;;5.60;96701.00;;;;4935688;29;20086;-57
2023/03/08 05:27:04;;;;;;;12.57;8.00;;;;;5.60;96707.00;;;;4935331;29;20099;-58
2023/03/08 05:29:31;;;;;;;13.55;8.52;;;;;5.60;96719.00;;;;4934856;29;20067;-59
2023/03/08 05:31:59;;;;;;;14.30;8.57;;;;;5.60;96709.00;;;;4936511;29;20063;-59
2023/03/08 05:34:29;;;;;;;13.40;8.70;;;;;5.60;96703.00;;;;4935188;29;20134;-60
2023/03/08 05:36:56;;;;;;;13.77;8.25;;;;;5.60;96700.00;;;;4935118;29;20071;-59
2023/03/08 05:39:23;;;;;;;12.23;8.20;;;;;5.60;96680.00;;;;4935021;29;20062;-60
2023/03/08 05:41:59;;;;;;;13.95;8.52;;;;;5.70;96689.00;;;;4935079;29;20138;-59
2023/03/08 05:44:32;;;;;;;15.23;8.63;;;;;5.70;96680.00;;;;4935071;29;20103;-59
2023/03/08 05:46:59;;;;;;;12.10;8.35;;;;;5.70;96663.00;;;;4934927;29;20122;-60
2023/03/08 05:49:25;;;;;;;13.20;8.15;;;;;5.70;96667.00;;;;4935887;29;20095;-59
2023/03/08 05:51:53;;;;;;;16.17;8.57;;;;;5.70;96650.00;;;;4934802;29;20143;-59
2023/03/08 05:54:22;;;;;;;14.45;8.18;;;;;5.70;96629.00;;;;4935747;29;20449;-59
2023/03/08 05:56:51;;;;;;;14.93;9.23;;;;;5.80;96626.00;;;;4935544;29;20047;-60
2023/03/08 05:59:25;;;;;;;13.82;7.97;;;;;5.90;96648.00;;;;4936204;29;20040;-60
2023/03/08 06:01:54;;;;;;;13.20;8.43;;;;;5.90;96638.00;;;;4935395;29;20043;-59
2023/03/08 06:04:43;;;;;;;14.07;8.65;;;;;5.90;96630.00;;;;4934808;29;20056;-60
2023/03/08 06:07:12;;;;;;;16.75;8.20;;;;;5.90;96626.00;;;;4934558;29;20048;-59
2023/03/08 06:09:43;;;;;;;12.68;7.60;;;;;6.00;96612.00;;;;4934017;29;20063;-59
2023/03/08 06:12:13;;;;;;;12.60;7.60;;;;;6.00;96624.00;;;;4934540;29;20071;-59
2023/03/08 06:14:43;;;;;;;13.65;8.75;;;;;6.10;96626.00;;;;4934582;29;20531;-60
2023/03/08 06:17:11;;;;;;;16.63;8.52;;;;;6.10;96632.00;;;;4935731;29;20063;-59
2023/03/08 06:19:41;;;;;;;12.45;8.07;;;;;6.10;96627.00;;;;4933388;29;20464;-59
2023/03/08 06:22:10;;;;;;;12.88;8.05;;;;;6.10;96627.00;;;;4934354;29;20413;-59
2023/03/08 06:24:36;;;;;;;15.77;8.50;;;;;6.10;96635.00;;;;4935892;29;20070;-59
2023/03/08 06:27:06;;;;;;;13.35;8.15;;;;;6.00;96635.00;;;;4919048;29;20075;-59
2023/03/08 06:29:33;;;;;;;16.05;8.95;;;;;5.90;96642.00;;;;4933589;29;20047;-59
2023/03/08 06:32:01;;;;;;;13.32;8.70;;;;;5.80;96627.00;;;;4934293;29;20146;-59
2023/03/08 06:34:29;;;;;;;12.57;8.48;;;;;5.80;96638.00;;;;4934210;29;20058;-60
2023/03/08 06:36:58;;;;;;;19.95;9.00;;;;;5.70;96627.00;;;;4934214;29;20047;-59
2023/03/08 06:39:29;;;;;;;14.10;8.32;;;;;5.60;96636.00;;;;4934234;29;20075;-60
2023/03/08 06:41:57;;;;;;;15.45;9.30;;;;;5.50;96626.00;;;;4934099;29;20078;-59
2023/03/08 06:44:24;;;;;;;14.70;8.27;;;;;5.60;96633.00;;;;4934040;29;20131;-59
2023/03/08 06:46:50;;;;;;;13.50;8.50;;;;;5.50;96626.00;;;;4935128;29;20055;-59
2023/03/08 06:49:17;;;;;;;15.75;9.48;;;;;5.50;96622.00;;;;4933968;29;20060;-58
2023/03/08 06:51:43;;;;;;;15.13;9.48;;;;;5.50;96621.00;;;;4933188;29;20146;-59
2023/03/08 06:54:13;;;;;;;14.50;8.90;;;;;5.40;96617.00;;;;4933916;29;20047;-59
2023/03/08 06:56:40;;;;;;;17.02;10.07;;;;;5.40;96608.00;;;;4933773;29;20043;-59
2023/03/08 06:59:06;;;;;;;16.10;9.60;;;;;5.40;96603.00;;;;4933897;29;20053;-59
2023/03/08 07:01:33;;;;;;;13.88;9.50;;;;;5.40;96598.00;;;;4934325;29;20083;-59
2023/03/08 07:03:59;;;;;;;15.02;9.63;;;;;5.40;96594.00;;;;4935046;29;20047;-58
2023/03/08 07:06:26;;;;;;;22.73;10.07;;;;;5.30;96583.00;;;;4934961;29;20067;-57
2023/03/08 07:08:53;;;;;;;16.45;9.82;;;;;5.30;96582.00;;;;4935034;29;20055;-58
2023/03/08 07:11:19;;;;;;;17.73;10.20;;;;;5.20;96583.00;;;;4932985;29;20044;-58
2023/03/08 07:13:46;;;;;;;16.55;9.80;;;;;5.20;96574.00;;;;4933774;29;20134;-58
2023/03/08 07:16:12;;;;;;;23.45;11.50;;;;;5.20;96572.00;;;;4934769;29;20052;-59
2023/03/08 07:18:39;;;;;;;15.48;9.80;;;;;5.10;96559.00;;;;4934811;29;20111;-59
2023/03/08 07:21:09;;;;;;;16.90;10.00;;;;;5.10;96552.00;;;;4934396;29;20043;-59
2023/03/08 07:23:35;;;;;;;18.17;9.45;;;;;5.10;96546.00;;;;4918007;29;20090;-58
2023/03/08 07:26:06;;;;;;;16.80;9.93;;;;;4.90;96536.00;;;;4949432;29;20123;-60
2023/03/08 07:28:33;;;;;;;17.33;9.63;;;;;4.80;96540.00;;;;4934902;29;20048;-59
2023/03/08 07:31:00;;;;;;;15.75;10.05;;;;;4.70;96531.00;;;;4935298;29;20071;-59
2023/03/08 07:33:26;;;;;;;13.45;8.93;;;;;4.70;96518.00;;;;4940412;29;20397;-59
2023/03/08 07:35:53;;;;;;;13.85;10.18;;;;;4.70;96519.00;;;;4944912;29;20059;-59
2023/03/08 07:38:19;;;;;;;21.77;11.10;;;;;4.70;96516.00;;;;4944876;29;20055;-59
2023/03/08 07:40:53;;;;;;;16.42;10.02;;;;;4.60;96498.00;;;;4940159;29;20048;-58
2023/03/08 07:43:19;;;;;;;15.73;9.60;;;;;4.60;96504.00;;;;4939065;29;20465;-58
2023/03/08 07:46:05;;;;;;;15.20;9.50;;;;;4.60;96500.00;;;;4924541;29;20099;-58
2023/03/08 07:48:32;;;;;;;15.88;9.82;;;;;4.70;96489.00;;;;4938405;29;20044;-57
2023/03/08 07:51:06;;;;;;;19.17;9.45;;;;;4.70;96492.00;;;;4937710;29;20040;-59
2023/03/08 07:53:32;;;;;;;15.43;8.95;;;;;4.70;96485.00;;;;4937298;29;20048;-59
2023/03/08 07:55:59;;;;;;;21.02;11.07;;;;;4.60;96466.00;;;;4938170;29;20048;-59
2023/03/08 07:58:27;;;;;;;16.02;10.30;;;;;4.50;96473.00;;;;4938215;29;20107;-59
2023/03/08 08:00:53;;;;;;;18.98;10.63;;;;;4.40;96462.00;;;;4937679;29;20400;-60
2023/03/08 08:03:20;;;;;;;17.67;10.07;;;;;4.30;96452.00;;;;4938146;29;20054;-60
2023/03/08 08:05:47;;;;;;;17.20;10.05;;;;;4.50;96439.00;;;;4936894;29;20043;-59
2023/03/08 08:08:14;;;;;;;16.75;10.32;;;;;4.40;96433.00;;;;4937908;29;20054;-58
2023/03/08 08:10:40;;;;;;;18.45;10.80;;;;;4.40;96425.00;;;;4937271;29;20067;-58
2023/03/08 08:13:07;;;;;;;17.35;11.10;;;;;4.60;96432.00;;;;4937667;29;20040;-58
2023/03/08 08:15:34;;;;;;;15.27;9.43;;;;;4.90;96432.00;;;;4937973;29;20090;-58
2023/03/08 08:18:01;;;;;;;16.63;10.20;;;;;4.90;96417.00;;;;4936733;29;20417;-57
2023/03/08 08:20:27;;;;;;;13.93;9.70;;;;;4.80;96414.00;;;;4937328;29;20410;-56
2023/03/08 08:22:54;;;;;;;15.20;9.88;;;;;4.80;96395.00;;;;4936360;29;20445;-55
2023/03/08 08:25:20;;;;;;;20.67;10.00;;;;;4.80;96402.00;;;;4937583;29;20548;-55
2023/03/08 08:27:48;;;;;;;15.95;10.02;;;;;4.90;96392.00;;;;4937471;29;20047;-58
2023/03/08 08:30:15;;;;;;;15.95;10.00;;;;;4.90;96388.00;;;;4937133;29;20512;-57
2023/03/08 08:32:42;;;;;;;17.75;10.38;;;;;4.80;96389.00;;;;4936321;29;20493;-56
2023/03/08 08:35:09;;;;;;;14.77;9.93;;;;;4.70;96391.00;;;;4937490;29;20043;-56
2023/03/08 08:37:35;;;;;;;16.73;10.15;;;;;4.70;96379.00;;;;4920426;29;20523;-58
2023/03/08 08:40:03;;;;;;;19.13;12.65;;;;;4.70;96379.00;;;;4936965;29;20047;-55
2023/03/08 08:42:30;;;;;;;12.05;8.27;;;;;4.80;96370.00;;;;4937122;29;20036;-57
2023/03/08 08:44:56;;;;;;;12.05;8.30;;;;;4.90;96373.00;;;;4937326;29;20051;-56
2023/03/08 08:47:23;;;;;;;13.32;7.07;;;;;5.00;96381.00;;;;4937585;29;20488;-56
2023/03/08 08:49:51;;;;;;;13.02;8.88;;;;;5.10;96377.00;;;;4937182;29;20409;-59
2023/03/08 08:52:18;;;;;;;12.77;8.80;;;;;5.10;96385.00;;;;4936596;29;20054;-59
2023/03/08 08:54:44;;;;;;;11.57;8.63;;;;;5.10;96386.00;;;;4937473;29;20419;-58
2023/03/08 08:57:11;;;;;;;12.27;8.43;;;;;5.00;96383.00;;;;4937146;29;20463;-56
2023/03/08 08:59:37;;;;;;;10.40;7.28;;;;;5.00;96385.00;;;;4936360;29;20043;-56
2023/03/08 09:02:05;;;;;;;10.38;7.07;;;;;5.10;96368.00;;;;4937098;29;20052;-60
2023/03/08 09:04:31;;;;;;;9.88;7.30;;;;;5.30;96354.00;;;;4936954;29;20043;-56
2023/03/08 09:06:58;;;;;;;7.28;6.07;;;;;5.50;96354.00;;;;4936881;29;20497;-59
2023/03/08 09:09:25;;;;;;;9.10;5.80;;;;;5.60;96345.00;;;;4937081;29;20047;-57
2023/03/08 09:11:52;;;;;;;8.93;6.30;;;;;5.70;96350.00;;;;4935297;29;20039;-59
2023/03/08 09:14:21;;;;;;;8.63;6.05;;;;;5.60;96341.00;;;;4937957;29;20130;-62
2023/03/08 09:16:47;;;;;;;9.60;6.03;;;;;5.50;96324.00;;;;4939828;29;20047;-62
2023/03/08 09:19:14;;;;;;;8.00;5.78;;;;;5.60;96321.00;;;;4940241;29;20039;-62
2023/03/08 09:21:41;;;;;;;7.38;5.55;;;;;5.60;96321.00;;;;4939318;29;20040;-62
2023/03/08 09:24:09;;;;;;;6.95;5.65;;;;;5.70;96313.00;;;;4939906;29;20405;-62
2023/03/08 09:26:36;;;;;;;7.13;5.10;;;;;5.70;96322.00;;;;4939746;29;20048;-61
2023/03/08 09:29:06;;;;;;;5.60;4.60;;;;;5.70;96314.00;;;;4939824;29;20058;-62
2023/03/08 09:31:35;;;;;;;6.20;5.05;;;;;5.70;96323.00;;;;4938906;29;20048;-62
2023/03/08 09:34:07;;;;;;;5.85;4.80;;;;;5.80;96311.00;;;;4937467;29;20051;-62
2023/03/08 09:36:35;;;;;;;6.25;4.72;;;;;5.90;96310.00;;;;4938776;29;20055;-62
2023/03/08 09:39:02;;;;;;;6.32;4.18;;;;;6.00;96304.00;;;;4939153;29;20044;-62
2023/03/08 09:41:48;;;;;;;6.53;4.47;;;;;6.00;96308.00;;;;4921006;29;20048;-62
2023/03/08 09:44:18;;;;;;;4.75;4.25;;;;;5.90;96301.00;;;;4921777;29;20110;-61
2023/03/08 09:46:53;;;;;;;7.82;5.18;;;;;6.00;96298.00;;;;4938045;29;20576;-62
2023/03/08 09:49:28;;;;;;;5.95;4.32;;;;;5.90;96292.00;;;;4937892;29;20390;-62
2023/03/08 09:52:12;;;;;;;6.53;4.85;;;;;5.90;96287.00;;;;4937501;29;20099;-61
2023/03/08 09:54:39;;;;;;;;;;;;;6.10;96289.00;;;;4937695;29;20047;-61
2023/03/08 09:57:27;;;;;;;7.90;4.35;;;;;6.10;96286.00;;;;4935699;29;20384;-59
2023/03/08 09:59:59;;;;;;;11.65;6.20;;;;;6.10;96289.00;;;;4934247;29;20132;-62
2023/03/08 10:02:25;;;;;;;12.23;5.97;;;;;6.10;96278.00;;;;4935869;29;20048;-61
2023/03/08 10:05:00;;;;;;;5.53;4.22;;;;;6.00;96271.00;;;;4934658;29;20053;-59
2023/03/08 10:07:48;;;;;;;4.57;3.88;;;;;6.00;96270.00;;;;4935761;29;20044;-58
2023/03/08 10:10:24;;;;;;;5.88;4.18;;;;;6.10;96270.00;;;;4935214;29;20485;-55
2023/03/08 10:13:06;;;;;;;8.80;5.57;;;;;6.10;96267.00;;;;4935589;29;20036;-56
2023/03/08 10:15:42;;;;;;;5.82;4.25;;;;;6.10;96257.00;;;;4935709;29;20048;-57
2023/03/08 10:18:17;;;;;;;5.55;3.97;;;;;6.20;96247.00;;;;4935723;29;20052;-56
2023/03/08 10:20:44;;;;;;;4.65;4.07;;;;;6.20;96238.00;;;;4933649;29;20102;-57
2023/03/08 10:23:19;;;;;;;11.38;5.35;;;;;6.30;96249.00;;;;4935488;29;20043;-56
2023/03/08 10:25:47;;;;;;;5.30;3.85;;;;;6.40;96243.00;;;;4935392;29;20513;-57
2023/03/08 10:28:23;;;;;;;8.23;4.38;;;;;6.40;96248.00;;;;4935170;29;20423;-60
2023/03/08 10:30:52;;;;;;;8.05;4.60;;;;;6.40;96237.00;;;;4934881;29;20047;-56
2023/03/08 10:33:23;;;;;;;5.20;4.18;;;;;6.40;96237.00;;;;4935429;29;20036;-59
2023/03/08 10:35:58;;;;;;;5.13;4.10;;;;;6.40;96232.00;;;;4934458;29;20052;-58
2023/03/08 10:38:30;;;;;;;7.10;5.35;;;;;6.40;96234.00;;;;4934237;29;20172;-59
2023/03/08 10:41:11;;;;;;;9.57;5.43;;;;;6.30;96219.00;;;;4934740;29;20059;-60
2023/03/08 10:43:43;;;;;;;9.88;5.25;;;;;6.20;96232.00;;;;4935202;29;20545;-58
2023/03/08 10:46:13;;;;;;;5.78;4.07;;;;;6.20;96220.00;;;;4933931;29;20103;-56
2023/03/08 10:48:39;;;;;;;8.00;5.70;;;;;6.20;96218.00;;;;4935168;29;20043;-57
2023/03/08 10:51:17;;;;;;;6.25;4.45;;;;;6.20;96210.00;;;;4934442;29;20091;-55
2023/03/08 10:54:01;;;;;;;7.95;4.72;;;;;6.20;96213.00;;;;4935123;29;20095;-57
2023/03/08 10:56:39;;;;;;;8.40;5.55;;;;;6.20;96217.00;;;;4935057;29;20048;-58
2023/03/08 10:59:16;;;;;;;7.93;5.05;;;;;6.30;96227.00;;;;4933882;29;20062;-56
2023/03/08 11:01:49;;;;;;;7.97;4.95;;;;;6.30;96214.00;;;;4934470;29;20047;-60
2023/03/08 11:04:18;;;;;;;6.53;4.50;;;;;6.30;96206.00;;;;4934897;29;20051;-59
2023/03/08 11:06:45;;;;;;;7.20;4.97;;;;;6.40;96207.00;;;;4934849;29;20051;-60
2023/03/08 11:09:26;;;;;;;17.60;9.00;;;;;6.50;96210.00;;;;4933627;29;20047;-59
2023/03/08 11:11:55;;;;;;;7.88;5.22;;;;;6.50;96203.00;;;;4933328;29;20044;-58
2023/03/08 11:14:23;;;;;;;9.98;6.03;;;;;6.60;96203.00;;;;4934988;29;20501;-59
2023/03/08 11:17:04;;;;;;;6.47;4.63;;;;;6.70;96213.00;;;;4934849;29;20051;-61
2023/03/08 11:20:25;;;;;;;7.28;4.90;;;;;6.70;96214.00;;;;4936112;29;20036;-67
2023/03/08 11:23:21;;;;;;;7.85;4.55;;;;;6.80;96206.00;;;;4876015;29;20053;-60
2023/03/08 11:26:15;;;;;;;6.03;4.63;;;;;6.90;96223.00;;;;4933643;29;20075;-58
2023/03/08 11:29:01;;;;;;;6.88;4.35;;;;;7.00;96217.00;;;;4934561;29;20043;-60
2023/03/08 11:31:54;;;;;;;5.88;4.60;;;;;7.10;96233.00;;;;4934160;29;20047;-56
2023/03/08 11:34:44;;;;;;;6.60;5.03;;;;;7.20;96219.00;;;;4934593;29;20047;-58
2023/03/08 11:37:28;;;;;;;5.38;4.22;;;;;7.30;96221.00;;;;4934534;29;20515;-57
2023/03/08 11:40:13;;;;;;;4.95;4.20;;;;;7.40;96228.00;;;;4934444;29;20043;-58
2023/03/08 11:43:25;;;;;;;5.15;4.10;;;;;7.40;96221.00;;;;4936636;29;20051;-57
2023/03/08 11:46:05;;;;;;;4.03;3.63;;;;;7.50;96223.00;;;;4908714;29;20062;-56
2023/03/08 11:48:47;;;;;;;6.50;4.13;;;;;7.50;96219.00;;;;4933454;29;20036;-56
2023/03/08 11:51:19;;;;;;;5.22;3.95;;;;;7.60;96212.00;;;;4933960;29;20623;-57
2023/03/08 11:54:23;;;;;;;4.15;3.58;;;;;7.70;96213.00;;;;4933240;29;20051;-57
2023/03/08 11:56:53;;;;;;;4.50;3.38;;;;;7.80;96212.00;;;;4934535;29;20416;-57
2023/03/08 11:59:28;;;;;;;4.03;3.47;;;;;7.80;96214.00;;;;4917760;29;20060;-56
2023/03/08 12:02:09;;;;;;;3.72;3.08;;;;;7.90;96208.00;;;;4934314;29;20421;-58
2023/03/08 12:04:48;;;;;;;4.32;3.70;;;;;8.00;96211.00;;;;4934488;29;20517;-58
2023/03/08 12:07:39;;;;;;;4.22;3.83;;;;;8.10;96205.00;;;;4934425;29;20067;-59
2023/03/08 12:10:28;;;;;;;3.42;3.13;;;;;8.30;96203.00;;;;4933958;29;20497;-57
2023/03/08 12:13:10;;;;;;;4.10;3.58;;;;;8.40;96204.00;;;;4934238;29;20130;-57
2023/03/08 12:15:56;;;;;;;4.18;3.58;;;;;8.60;96192.00;;;;4934406;29;20501;-61
2023/03/08 12:18:40;;;;;;;3.30;3.00;;;;;8.70;96204.00;;;;4937419;29;20122;-57
2023/03/08 12:21:37;;;;;;;3.30;3.00;;;;;8.90;96203.00;;;;4937222;29;20044;-57
2023/03/08 12:24:14;;;;;;;3.80;3.00;;;;;9.00;96196.00;;;;4936726;29;20424;-58
2023/03/08 12:26:47;;;;;;;3.55;3.03;;;;;9.10;96201.00;;;;4937859;29;20509;-57
2023/03/08 12:29:24;;;;;;;3.58;3.13;;;;;9.20;96193.00;;;;4937495;29;20134;-58
2023/03/08 12:31:51;;;;;;;3.45;3.00;;;;;9.30;96180.00;;;;4937228;29;20043;-59
2023/03/08 12:34:28;;;;;;;4.72;3.55;;;;;9.40;96187.00;;;;4937864;29;20079;-59
2023/03/08 12:36:55;;;;;;;3.75;3.35;;;;;9.40;96191.00;;;;4937938;29;20091;-57